Pickwick Observed Data For Previous 48 Hours

Caption
Day and Hour Reservoir Elevation (behind dam)* Tailwater Elevation (below dam)* Average Hourly Discharge*
7/14/2018 1 AM CDT 413.73 359.39 10,987
7/14/2018 2 AM CDT 413.62 359.08 10,881
7/14/2018 3 AM CDT 413.66 358.83 10,854
7/14/2018 4 AM CDT 413.77 358.65 10,950
7/14/2018 5 AM CDT 413.77 358.52 10,860
7/14/2018 6 AM CDT 413.72 358.44 10,756
7/14/2018 7 AM CDT 413.70 358.49 10,789
7/14/2018 8 AM CDT 413.67 358.38 10,906
7/14/2018 9 AM CDT 413.65 358.43 10,831
7/14/2018 10 AM CDT 413.71 358.36 10,860
7/14/2018 11 AM CDT 413.71 358.81 20,671
7/14/2018 12 PM CDT 413.69 359.02 20,802
7/14/2018 1 PM CDT 413.59 359.59 29,995
7/14/2018 2 PM CDT 413.62 359.93 30,020
7/14/2018 3 PM CDT 413.66 360.10 29,788
7/14/2018 4 PM CDT 413.83 360.59 38,381
7/14/2018 5 PM CDT 413.78 361.00 38,763
7/14/2018 6 PM CDT 413.79 361.08 38,543
7/14/2018 7 PM CDT 413.74 360.78 29,378
7/14/2018 8 PM CDT 413.79 360.59 29,286
7/14/2018 9 PM CDT 413.86 360.08 20,328
7/14/2018 10 PM CDT 413.85 359.77 19,889
7/14/2018 11 PM CDT 413.82 359.29 11,356
7/15/2018 12 AM CDT 413.84 358.90 10,894
7/15/2018 1 AM CDT 413.88 358.64 10,840
7/15/2018 2 AM CDT 413.92 358.48 10,860
7/15/2018 3 AM CDT 413.99 358.44 10,922
7/15/2018 4 AM CDT 413.94 358.36 10,871
7/15/2018 5 AM CDT 414.04 358.35 10,855
7/15/2018 6 AM CDT 414.04 358.33 10,873
7/15/2018 7 AM CDT 414.06 358.31 10,845
7/15/2018 8 AM CDT 414.11 358.26 10,805
7/15/2018 9 AM CDT 414.12 358.26 12,220
7/15/2018 10 AM CDT 414.10 358.68 20,947
7/15/2018 11 AM CDT 414.20 359.32 29,933
7/15/2018 12 PM CDT 414.21 359.99 37,365
7/15/2018 1 PM CDT 414.24 360.56 38,723
7/15/2018 2 PM CDT 414.32 361.06 42,204
7/15/2018 3 PM CDT 414.32 361.54 45,913
7/15/2018 4 PM CDT 414.25 361.72 45,761
7/15/2018 5 PM CDT 414.22 361.88 46,147
7/15/2018 6 PM CDT 414.29 362.02 46,465
7/15/2018 7 PM CDT 414.28 362.10 46,241
7/15/2018 8 PM CDT 414.26 362.22 46,301
7/15/2018 9 PM CDT 414.26 362.31 46,292
7/15/2018 10 PM CDT 414.19 362.37 46,493
7/15/2018 11 PM CDT 414.09 362.40 46,565
7/16/2018 12 AM CDT 414.05 362.43 46,595
7/16/2018 1 AM CDT 414.15 361.88 30,321

Elevations are in feet above sea level. Discharges are in cubic feet per second and are reported at the end of the hour.